sensor_id;sensor_type;location;lat;lon;timestamp;temperature;humidity
15013;DHT22;7603;49.432;11.418;2024-02-21T00:00:56;5.20;99.90
15013;DHT22;7603;49.432;11.418;2024-02-21T00:03:21;5.10;99.90
15013;DHT22;7603;49.432;11.418;2024-02-21T00:05:47;5.10;99.90
15013;DHT22;7603;49.432;11.418;2024-02-21T00:08:12;5.00;99.90
15013;DHT22;7603;49.432;11.418;2024-02-21T00:10:38;5.00;99.90
15013;DHT22;7603;49.432;11.418;2024-02-21T00:13:04;5.00;99.90
15013;DHT22;7603;49.432;11.418;2024-02-21T00:15:29;4.90;99.90
15013;DHT22;7603;49.432;11.418;2024-02-21T00:17:55;4.90;99.90
15013;DHT22;7603;49.432;11.418;2024-02-21T00:20:20;4.90;99.90
15013;DHT22;7603;49.432;11.418;2024-02-21T00:22:46;4.90;99.90
15013;DHT22;7603;49.432;11.418;2024-02-21T00:25:12;4.90;99.90
15013;DHT22;7603;49.432;11.418;2024-02-21T00:27:38;4.90;99.90
15013;DHT22;7603;49.432;11.418;2024-02-21T00:30:07;4.90;99.90
15013;DHT22;7603;49.432;11.418;2024-02-21T00:32:33;5.00;99.90
15013;DHT22;7603;49.432;11.418;2024-02-21T00:35:00;5.00;99.90
15013;DHT22;7603;49.432;11.418;2024-02-21T00:37:26;5.10;99.90
15013;DHT22;7603;49.432;11.418;2024-02-21T00:39:53;5.10;99.90
15013;DHT22;7603;49.432;11.418;2024-02-21T00:42:19;5.20;99.90
15013;DHT22;7603;49.432;11.418;2024-02-21T00:44:44;5.20;99.90
15013;DHT22;7603;49.432;11.418;2024-02-21T00:47:10;5.30;99.90
15013;DHT22;7603;49.432;11.418;2024-02-21T00:49:36;5.30;99.90
15013;DHT22;7603;49.432;11.418;2024-02-21T00:52:01;5.30;99.90
15013;DHT22;7603;49.432;11.418;2024-02-21T00:54:27;5.40;99.90
15013;DHT22;7603;49.432;11.418;2024-02-21T00:56:52;5.40;99.90
15013;DHT22;7603;49.432;11.418;2024-02-21T00:59:18;5.50;99.90
15013;DHT22;7603;49.432;11.418;2024-02-21T01:01:44;5.50;99.90
15013;DHT22;7603;49.432;11.418;2024-02-21T01:04:10;5.50;99.90
15013;DHT22;7603;49.432;11.418;2024-02-21T01:06:35;5.50;99.90
15013;DHT22;7603;49.432;11.418;2024-02-21T01:09:01;5.60;99.90
15013;DHT22;7603;49.432;11.418;2024-02-21T01:11:27;5.60;99.90
15013;DHT22;7603;49.432;11.418;2024-02-21T01:13:53;5.70;99.90
15013;DHT22;7603;49.432;11.418;2024-02-21T01:16:18;5.70;99.90
15013;DHT22;7603;49.432;11.418;2024-02-21T01:18:44;5.70;99.90
15013;DHT22;7603;49.432;11.418;2024-02-21T01:21:10;5.80;99.90
15013;DHT22;7603;49.432;11.418;2024-02-21T01:23:36;5.80;99.90
15013;DHT22;7603;49.432;11.418;2024-02-21T01:26:03;5.80;99.90
15013;DHT22;7603;49.432;11.418;2024-02-21T01:28:29;5.90;99.90
15013;DHT22;7603;49.432;11.418;2024-02-21T01:30:56;5.90;99.90
15013;DHT22;7603;49.432;11.418;2024-02-21T01:33:21;6.00;99.90
15013;DHT22;7603;49.432;11.418;2024-02-21T01:35:47;5.90;99.90
15013;DHT22;7603;49.432;11.418;2024-02-21T01:38:13;6.00;99.90
15013;DHT22;7603;49.432;11.418;2024-02-21T01:40:39;6.00;99.90
15013;DHT22;7603;49.432;11.418;2024-02-21T01:43:18;6.00;99.90
15013;DHT22;7603;49.432;11.418;2024-02-21T01:45:48;6.00;99.90
15013;DHT22;7603;49.432;11.418;2024-02-21T01:48:14;6.00;99.90
15013;DHT22;7603;49.432;11.418;2024-02-21T01:50:40;6.00;99.90
15013;DHT22;7603;49.432;11.418;2024-02-21T01:53:06;6.00;99.90
15013;DHT22;7603;49.432;11.418;2024-02-21T01:55:32;6.10;99.90
15013;DHT22;7603;49.432;11.418;2024-02-21T01:57:58;6.10;99.90
15013;DHT22;7603;49.432;11.418;2024-02-21T02:00:24;6.10;99.90
15013;DHT22;7603;49.432;11.418;2024-02-21T02:02:50;6.10;99.90
15013;DHT22;7603;49.432;11.418;2024-02-21T02:05:16;6.10;99.90
15013;DHT22;7603;49.432;11.418;2024-02-21T02:07:44;6.00;99.90
15013;DHT22;7603;49.432;11.418;2024-02-21T02:10:09;6.10;99.90
15013;DHT22;7603;49.432;11.418;2024-02-21T02:12:35;6.10;99.90
15013;DHT22;7603;49.432;11.418;2024-02-21T02:15:02;6.10;99.90
15013;DHT22;7603;49.432;11.418;2024-02-21T02:17:32;6.20;99.90
15013;DHT22;7603;49.432;11.418;2024-02-21T02:19:58;6.20;99.90
15013;DHT22;7603;49.432;11.418;2024-02-21T02:22:28;6.20;99.90
15013;DHT22;7603;49.432;11.418;2024-02-21T02:24:54;6.20;99.90
15013;DHT22;7603;49.432;11.418;2024-02-21T02:27:20;6.20;99.90
15013;DHT22;7603;49.432;11.418;2024-02-21T02:29:48;6.20;99.90
15013;DHT22;7603;49.432;11.418;2024-02-21T02:32:14;6.20;99.90
15013;DHT22;7603;49.432;11.418;2024-02-21T02:34:40;6.20;99.90
15013;DHT22;7603;49.432;11.418;2024-02-21T02:37:06;6.20;99.90
15013;DHT22;7603;49.432;11.418;2024-02-21T02:39:31;6.20;99.90
15013;DHT22;7603;49.432;11.418;2024-02-21T02:41:57;6.20;99.90
15013;DHT22;7603;49.432;11.418;2024-02-21T02:44:22;6.20;99.90
15013;DHT22;7603;49.432;11.418;2024-02-21T02:46:48;6.30;99.90
15013;DHT22;7603;49.432;11.418;2024-02-21T02:49:14;6.30;99.90
15013;DHT22;7603;49.432;11.418;2024-02-21T02:51:43;6.30;99.90
15013;DHT22;7603;49.432;11.418;2024-02-21T02:54:11;6.30;99.90
15013;DHT22;7603;49.432;11.418;2024-02-21T02:56:37;6.30;99.90
15013;DHT22;7603;49.432;11.418;2024-02-21T02:59:03;6.30;99.90
15013;DHT22;7603;49.432;11.418;2024-02-21T03:01:28;6.20;99.90
15013;DHT22;7603;49.432;11.418;2024-02-21T03:03:54;6.20;99.90
15013;DHT22;7603;49.432;11.418;2024-02-21T03:06:20;6.20;99.90
15013;DHT22;7603;49.432;11.418;2024-02-21T03:08:45;6.30;99.90
15013;DHT22;7603;49.432;11.418;2024-02-21T03:11:11;6.20;99.90
15013;DHT22;7603;49.432;11.418;2024-02-21T03:13:37;6.20;99.90
15013;DHT22;7603;49.432;11.418;2024-02-21T03:16:03;6.20;99.90
15013;DHT22;7603;49.432;11.418;2024-02-21T03:18:29;6.20;99.90
15013;DHT22;7603;49.432;11.418;2024-02-21T03:20:54;6.20;99.90
15013;DHT22;7603;49.432;11.418;2024-02-21T03:23:20;6.20;99.90
15013;DHT22;7603;49.432;11.418;2024-02-21T03:25:45;6.20;99.90
15013;DHT22;7603;49.432;11.418;2024-02-21T03:28:11;6.20;99.90
15013;DHT22;7603;49.432;11.418;2024-02-21T03:30:37;6.20;99.90
15013;DHT22;7603;49.432;11.418;2024-02-21T03:33:02;6.20;99.90
15013;DHT22;7603;49.432;11.418;2024-02-21T03:35:28;6.20;99.90
15013;DHT22;7603;49.432;11.418;2024-02-21T03:37:54;6.20;99.90
15013;DHT22;7603;49.432;11.418;2024-02-21T03:40:19;6.20;99.90
15013;DHT22;7603;49.432;11.418;2024-02-21T03:42:45;6.20;99.90
15013;DHT22;7603;49.432;11.418;2024-02-21T03:45:11;6.20;99.90
15013;DHT22;7603;49.432;11.418;2024-02-21T03:47:36;6.20;99.90
15013;DHT22;7603;49.432;11.418;2024-02-21T03:50:02;6.10;99.90
15013;DHT22;7603;49.432;11.418;2024-02-21T03:52:28;6.10;99.90
15013;DHT22;7603;49.432;11.418;2024-02-21T03:54:53;6.00;99.90
15013;DHT22;7603;49.432;11.418;2024-02-21T03:57:20;5.90;99.90
15013;DHT22;7603;49.432;11.418;2024-02-21T03:59:46;5.90;99.90
15013;DHT22;7603;49.432;11.418;2024-02-21T04:02:15;5.80;99.90
15013;DHT22;7603;49.432;11.418;2024-02-21T04:04:43;5.70;99.90
15013;DHT22;7603;49.432;11.418;2024-02-21T04:07:12;5.70;99.90
15013;DHT22;7603;49.432;11.418;2024-02-21T04:09:37;5.60;99.90
15013;DHT22;7603;49.432;11.418;2024-02-21T04:12:03;5.60;99.90
15013;DHT22;7603;49.432;11.418;2024-02-21T04:14:29;5.60;99.90
15013;DHT22;7603;49.432;11.418;2024-02-21T04:16:54;5.60;99.90
15013;DHT22;7603;49.432;11.418;2024-02-21T04:19:20;5.60;99.90
15013;DHT22;7603;49.432;11.418;2024-02-21T04:21:46;5.60;99.90
15013;DHT22;7603;49.432;11.418;2024-02-21T04:24:11;5.60;99.90
15013;DHT22;7603;49.432;11.418;2024-02-21T04:26:37;5.60;99.90
15013;DHT22;7603;49.432;11.418;2024-02-21T04:29:03;5.60;99.90
15013;DHT22;7603;49.432;11.418;2024-02-21T04:31:28;5.70;99.90
15013;DHT22;7603;49.432;11.418;2024-02-21T04:33:54;5.70;99.90
15013;DHT22;7603;49.432;11.418;2024-02-21T04:36:19;5.70;99.90
15013;DHT22;7603;49.432;11.418;2024-02-21T04:38:45;5.70;99.90
15013;DHT22;7603;49.432;11.418;2024-02-21T04:41:11;5.70;99.90
15013;DHT22;7603;49.432;11.418;2024-02-21T04:43:36;5.80;99.90
15013;DHT22;7603;49.432;11.418;2024-02-21T04:46:02;5.80;99.90
15013;DHT22;7603;49.432;11.418;2024-02-21T04:48:27;5.80;99.90
15013;DHT22;7603;49.432;11.418;2024-02-21T04:50:53;5.90;99.90
15013;DHT22;7603;49.432;11.418;2024-02-21T04:53:19;5.90;99.90
15013;DHT22;7603;49.432;11.418;2024-02-21T04:55:45;5.90;99.90
15013;DHT22;7603;49.432;11.418;2024-02-21T04:58:11;5.90;99.90
15013;DHT22;7603;49.432;11.418;2024-02-21T05:00:36;5.90;99.90
15013;DHT22;7603;49.432;11.418;2024-02-21T05:03:02;5.90;99.90
15013;DHT22;7603;49.432;11.418;2024-02-21T05:05:28;5.90;99.90
15013;DHT22;7603;49.432;11.418;2024-02-21T05:07:53;5.90;99.90
15013;DHT22;7603;49.432;11.418;2024-02-21T05:10:19;5.90;99.90
15013;DHT22;7603;49.432;11.418;2024-02-21T05:12:45;5.90;99.90
15013;DHT22;7603;49.432;11.418;2024-02-21T05:15:11;5.80;99.90
15013;DHT22;7603;49.432;11.418;2024-02-21T05:17:37;5.80;99.90
15013;DHT22;7603;49.432;11.418;2024-02-21T05:20:03;5.80;99.90
15013;DHT22;7603;49.432;11.418;2024-02-21T05:22:29;5.80;99.90
15013;DHT22;7603;49.432;11.418;2024-02-21T05:24:54;5.80;99.90
15013;DHT22;7603;49.432;11.418;2024-02-21T05:27:20;5.80;99.90
15013;DHT22;7603;49.432;11.418;2024-02-21T05:29:46;5.80;99.90
15013;DHT22;7603;49.432;11.418;2024-02-21T05:32:13;5.70;99.90
15013;DHT22;7603;49.432;11.418;2024-02-21T05:34:39;5.70;99.90
15013;DHT22;7603;49.432;11.418;2024-02-21T05:37:05;5.70;99.90
15013;DHT22;7603;49.432;11.418;2024-02-21T05:39:30;5.70;99.90
15013;DHT22;7603;49.432;11.418;2024-02-21T05:41:56;5.70;99.90
15013;DHT22;7603;49.432;11.418;2024-02-21T05:44:22;5.70;99.90
15013;DHT22;7603;49.432;11.418;2024-02-21T05:46:47;5.80;99.90
15013;DHT22;7603;49.432;11.418;2024-02-21T05:49:13;5.70;99.90
15013;DHT22;7603;49.432;11.418;2024-02-21T05:51:39;5.70;99.90
15013;DHT22;7603;49.432;11.418;2024-02-21T05:54:05;5.70;99.90
15013;DHT22;7603;49.432;11.418;2024-02-21T05:56:32;5.70;99.90
15013;DHT22;7603;49.432;11.418;2024-02-21T05:58:58;5.60;99.90
15013;DHT22;7603;49.432;11.418;2024-02-21T06:01:24;5.50;99.90
15013;DHT22;7603;49.432;11.418;2024-02-21T06:03:50;5.50;99.90
15013;DHT22;7603;49.432;11.418;2024-02-21T06:06:15;5.40;99.90
15013;DHT22;7603;49.432;11.418;2024-02-21T06:08:41;5.30;99.90
15013;DHT22;7603;49.432;11.418;2024-02-21T06:11:07;5.30;99.90
15013;DHT22;7603;49.432;11.418;2024-02-21T06:13:32;5.20;99.90
15013;DHT22;7603;49.432;11.418;2024-02-21T06:15:58;5.10;99.90
15013;DHT22;7603;49.432;11.418;2024-02-21T06:18:24;5.00;99.90
15013;DHT22;7603;49.432;11.418;2024-02-21T06:20:49;4.90;99.90
15013;DHT22;7603;49.432;11.418;2024-02-21T06:23:16;4.80;99.90
15013;DHT22;7603;49.432;11.418;2024-02-21T06:25:45;4.70;99.90
15013;DHT22;7603;49.432;11.418;2024-02-21T06:28:13;4.70;99.90
15013;DHT22;7603;49.432;11.418;2024-02-21T06:30:39;4.60;99.90
15013;DHT22;7603;49.432;11.418;2024-02-21T06:33:05;4.60;99.90
15013;DHT22;7603;49.432;11.418;2024-02-21T06:35:31;4.70;99.90
15013;DHT22;7603;49.432;11.418;2024-02-21T06:37:56;4.70;99.90
15013;DHT22;7603;49.432;11.418;2024-02-21T06:40:22;4.70;99.90
15013;DHT22;7603;49.432;11.418;2024-02-21T06:42:49;4.70;99.90
15013;DHT22;7603;49.432;11.418;2024-02-21T06:45:15;4.70;99.90
15013;DHT22;7603;49.432;11.418;2024-02-21T06:47:41;4.70;99.90
15013;DHT22;7603;49.432;11.418;2024-02-21T06:50:07;4.70;99.90
15013;DHT22;7603;49.432;11.418;2024-02-21T06:52:34;4.70;99.90
15013;DHT22;7603;49.432;11.418;2024-02-21T06:54:59;4.70;99.90
15013;DHT22;7603;49.432;11.418;2024-02-21T06:57:26;4.80;99.90
15013;DHT22;7603;49.432;11.418;2024-02-21T06:59:51;4.90;99.90
15013;DHT22;7603;49.432;11.418;2024-02-21T07:02:17;5.10;99.90
15013;DHT22;7603;49.432;11.418;2024-02-21T07:04:43;5.30;99.90
15013;DHT22;7603;49.432;11.418;2024-02-21T07:07:09;5.50;99.90
15013;DHT22;7603;49.432;11.418;2024-02-21T07:09:34;5.60;99.90
15013;DHT22;7603;49.432;11.418;2024-02-21T07:12:01;5.80;99.90
15013;DHT22;7603;49.432;11.418;2024-02-21T07:14:28;6.00;99.90
15013;DHT22;7603;49.432;11.418;2024-02-21T07:16:54;6.10;99.90
15013;DHT22;7603;49.432;11.418;2024-02-21T07:19:20;6.10;99.90
15013;DHT22;7603;49.432;11.418;2024-02-21T07:21:45;6.10;99.90
15013;DHT22;7603;49.432;11.418;2024-02-21T07:24:11;6.10;99.90
15013;DHT22;7603;49.432;11.418;2024-02-21T07:26:40;6.10;99.90
15013;DHT22;7603;49.432;11.418;2024-02-21T07:29:06;6.00;99.90
15013;DHT22;7603;49.432;11.418;2024-02-21T07:31:39;5.90;99.90
15013;DHT22;7603;49.432;11.418;2024-02-21T07:34:05;5.90;99.90
15013;DHT22;7603;49.432;11.418;2024-02-21T07:36:31;5.90;99.90
15013;DHT22;7603;49.432;11.418;2024-02-21T07:38:56;5.90;99.90
15013;DHT22;7603;49.432;11.418;2024-02-21T07:41:22;6.00;99.90
15013;DHT22;7603;49.432;11.418;2024-02-21T07:43:47;6.10;99.90
15013;DHT22;7603;49.432;11.418;2024-02-21T07:46:14;6.30;99.90
15013;DHT22;7603;49.432;11.418;2024-02-21T07:48:40;6.60;99.90
15013;DHT22;7603;49.432;11.418;2024-02-21T07:51:05;6.80;99.90
15013;DHT22;7603;49.432;11.418;2024-02-21T07:53:31;7.00;99.90
15013;DHT22;7603;49.432;11.418;2024-02-21T07:55:57;7.20;99.90
15013;DHT22;7603;49.432;11.418;2024-02-21T07:58:22;7.40;99.90
15013;DHT22;7603;49.432;11.418;2024-02-21T08:00:48;7.50;99.90
15013;DHT22;7603;49.432;11.418;2024-02-21T08:03:14;7.60;99.90
15013;DHT22;7603;49.432;11.418;2024-02-21T08:05:41;7.60;99.90
15013;DHT22;7603;49.432;11.418;2024-02-21T08:08:06;7.60;99.90
15013;DHT22;7603;49.432;11.418;2024-02-21T08:10:33;7.80;99.90
15013;DHT22;7603;49.432;11.418;2024-02-21T08:12:59;8.00;99.90
15013;DHT22;7603;49.432;11.418;2024-02-21T08:15:25;8.20;99.90
15013;DHT22;7603;49.432;11.418;2024-02-21T08:17:55;8.50;99.90
15013;DHT22;7603;49.432;11.418;2024-02-21T08:20:25;9.00;99.90
15013;DHT22;7603;49.432;11.418;2024-02-21T08:22:50;9.50;99.90
15013;DHT22;7603;49.432;11.418;2024-02-21T08:25:16;9.80;99.90
15013;DHT22;7603;49.432;11.418;2024-02-21T08:27:41;10.00;99.90
15013;DHT22;7603;49.432;11.418;2024-02-21T08:30:07;10.00;99.90
15013;DHT22;7603;49.432;11.418;2024-02-21T08:32:33;10.10;99.90
15013;DHT22;7603;49.432;11.418;2024-02-21T08:35:01;10.30;99.90
15013;DHT22;7603;49.432;11.418;2024-02-21T08:37:27;10.50;99.90
15013;DHT22;7603;49.432;11.418;2024-02-21T08:39:53;10.80;99.90
15013;DHT22;7603;49.432;11.418;2024-02-21T08:42:19;11.20;99.90
15013;DHT22;7603;49.432;11.418;2024-02-21T08:44:45;11.50;99.90
15013;DHT22;7603;49.432;11.418;2024-02-21T08:47:11;11.90;99.90
15013;DHT22;7603;49.432;11.418;2024-02-21T08:49:37;12.20;99.90
15013;DHT22;7603;49.432;11.418;2024-02-21T08:52:03;12.60;99.90
15013;DHT22;7603;49.432;11.418;2024-02-21T08:54:29;12.90;99.90
15013;DHT22;7603;49.432;11.418;2024-02-21T08:56:55;13.30;99.90
15013;DHT22;7603;49.432;11.418;2024-02-21T08:59:20;13.60;99.90
15013;DHT22;7603;49.432;11.418;2024-02-21T09:01:46;13.80;99.90
15013;DHT22;7603;49.432;11.418;2024-02-21T09:04:12;14.00;99.90
15013;DHT22;7603;49.432;11.418;2024-02-21T09:06:37;14.30;99.90
15013;DHT22;7603;49.432;11.418;2024-02-21T09:09:10;14.50;99.90
15013;DHT22;7603;49.432;11.418;2024-02-21T09:11:36;14.80;99.80
15013;DHT22;7603;49.432;11.418;2024-02-21T09:14:01;15.00;97.10
15013;DHT22;7603;49.432;11.418;2024-02-21T09:16:32;15.00;96.20
15013;DHT22;7603;49.432;11.418;2024-02-21T09:18:58;15.20;95.60
15013;DHT22;7603;49.432;11.418;2024-02-21T09:21:23;15.30;94.60
15013;DHT22;7603;49.432;11.418;2024-02-21T09:23:49;15.50;94.50
15013;DHT22;7603;49.432;11.418;2024-02-21T09:26:15;15.80;92.80
15013;DHT22;7603;49.432;11.418;2024-02-21T09:28:42;16.10;92.50
15013;DHT22;7603;49.432;11.418;2024-02-21T09:31:08;16.30;90.10
15013;DHT22;7603;49.432;11.418;2024-02-21T09:33:34;16.50;89.10
15013;DHT22;7603;49.432;11.418;2024-02-21T09:36:00;16.70;89.00
15013;DHT22;7603;49.432;11.418;2024-02-21T09:38:28;17.00;85.70
15013;DHT22;7603;49.432;11.418;2024-02-21T09:41:00;17.40;82.70
15013;DHT22;7603;49.432;11.418;2024-02-21T09:43:27;17.50;80.50
15013;DHT22;7603;49.432;11.418;2024-02-21T09:45:55;17.80;81.10
15013;DHT22;7603;49.432;11.418;2024-02-21T09:48:33;18.10;77.40
15013;DHT22;7603;49.432;11.418;2024-02-21T09:51:06;18.30;75.10
15013;DHT22;7603;49.432;11.418;2024-02-21T09:53:32;18.10;74.30
15013;DHT22;7603;49.432;11.418;2024-02-21T09:55:59;18.10;75.30
15013;DHT22;7603;49.432;11.418;2024-02-21T09:58:26;18.40;75.90
15013;DHT22;7603;49.432;11.418;2024-02-21T10:00:53;19.20;74.90
15013;DHT22;7603;49.432;11.418;2024-02-21T10:03:18;19.70;70.60
15013;DHT22;7603;49.432;11.418;2024-02-21T10:05:48;19.80;66.60
15013;DHT22;7603;49.432;11.418;2024-02-21T10:08:15;19.70;65.00
15013;DHT22;7603;49.432;11.418;2024-02-21T10:10:44;19.90;65.70
15013;DHT22;7603;49.432;11.418;2024-02-21T10:13:11;20.00;64.50
15013;DHT22;7603;49.432;11.418;2024-02-21T10:15:47;20.20;64.70
15013;DHT22;7603;49.432;11.418;2024-02-21T10:18:17;20.50;62.30
15013;DHT22;7603;49.432;11.418;2024-02-21T10:20:43;20.40;61.70
15013;DHT22;7603;49.432;11.418;2024-02-21T10:23:09;20.40;61.20
15013;DHT22;7603;49.432;11.418;2024-02-21T10:25:35;20.00;58.40
15013;DHT22;7603;49.432;11.418;2024-02-21T10:28:07;20.00;59.40
15013;DHT22;7603;49.432;11.418;2024-02-21T10:30:32;20.10;59.80
15013;DHT22;7603;49.432;11.418;2024-02-21T10:32:58;20.50;59.70
15013;DHT22;7603;49.432;11.418;2024-02-21T10:35:28;20.90;59.00
15013;DHT22;7603;49.432;11.418;2024-02-21T10:37:55;21.10;57.10
15013;DHT22;7603;49.432;11.418;2024-02-21T10:40:29;20.60;56.60
15013;DHT22;7603;49.432;11.418;2024-02-21T10:42:59;20.10;58.00
15013;DHT22;7603;49.432;11.418;2024-02-21T10:45:32;20.10;58.40
15013;DHT22;7603;49.432;11.418;2024-02-21T10:48:15;20.40;58.00
15013;DHT22;7603;49.432;11.418;2024-02-21T10:56:07;20.90;54.80
15013;DHT22;7603;49.432;11.418;2024-02-21T10:58:35;20.90;54.40
15013;DHT22;7603;49.432;11.418;2024-02-21T11:01:02;21.20;54.50
15013;DHT22;7603;49.432;11.418;2024-02-21T11:03:29;21.80;53.80
15013;DHT22;7603;49.432;11.418;2024-02-21T11:05:55;22.20;52.40
15013;DHT22;7603;49.432;11.418;2024-02-21T11:08:21;22.00;51.40
15013;DHT22;7603;49.432;11.418;2024-02-21T11:10:47;21.80;52.40
15013;DHT22;7603;49.432;11.418;2024-02-21T11:13:13;21.50;52.70
15013;DHT22;7603;49.432;11.418;2024-02-21T11:15:39;21.50;53.20
15013;DHT22;7603;49.432;11.418;2024-02-21T11:18:05;21.50;52.50
15013;DHT22;7603;49.432;11.418;2024-02-21T11:20:38;21.20;52.50
15013;DHT22;7603;49.432;11.418;2024-02-21T11:23:04;20.40;53.10
15013;DHT22;7603;49.432;11.418;2024-02-21T11:25:30;19.60;54.60
15013;DHT22;7603;49.432;11.418;2024-02-21T11:28:04;19.30;55.80
15013;DHT22;7603;49.432;11.418;2024-02-21T11:30:33;19.30;55.90
15013;DHT22;7603;49.432;11.418;2024-02-21T11:33:05;19.30;56.20
15013;DHT22;7603;49.432;11.418;2024-02-21T11:35:32;19.30;56.70
15013;DHT22;7603;49.432;11.418;2024-02-21T11:38:08;19.70;56.00
15013;DHT22;7603;49.432;11.418;2024-02-21T11:40:38;19.90;55.00
15013;DHT22;7603;49.432;11.418;2024-02-21T11:43:04;20.30;54.90
15013;DHT22;7603;49.432;11.418;2024-02-21T11:45:29;20.60;54.80
15013;DHT22;7603;49.432;11.418;2024-02-21T11:47:58;21.20;54.00
15013;DHT22;7603;49.432;11.418;2024-02-21T11:50:28;21.80;52.70
15013;DHT22;7603;49.432;11.418;2024-02-21T11:52:54;22.20;51.60
15013;DHT22;7603;49.432;11.418;2024-02-21T11:55:21;22.20;50.70
15013;DHT22;7603;49.432;11.418;2024-02-21T11:57:50;22.40;50.90
15013;DHT22;7603;49.432;11.418;2024-02-21T12:00:20;23.10;50.30
15013;DHT22;7603;49.432;11.418;2024-02-21T12:02:46;23.60;48.30
15013;DHT22;7603;49.432;11.418;2024-02-21T12:05:13;24.20;47.60
15013;DHT22;7603;49.432;11.418;2024-02-21T12:07:39;24.70;46.50
15013;DHT22;7603;49.432;11.418;2024-02-21T12:10:14;24.90;45.10
15013;DHT22;7603;49.432;11.418;2024-02-21T12:12:40;24.70;44.40
15013;DHT22;7603;49.432;11.418;2024-02-21T12:15:07;25.00;44.70
15013;DHT22;7603;49.432;11.418;2024-02-21T12:17:36;25.50;44.20
15013;DHT22;7603;49.432;11.418;2024-02-21T12:20:03;26.10;43.20
15013;DHT22;7603;49.432;11.418;2024-02-21T12:22:35;26.70;42.70
15013;DHT22;7603;49.432;11.418;2024-02-21T12:25:24;27.00;40.30
15013;DHT22;7603;49.432;11.418;2024-02-21T12:27:51;27.00;40.60
15013;DHT22;7603;49.432;11.418;2024-02-21T12:30:17;26.80;39.80
15013;DHT22;7603;49.432;11.418;2024-02-21T12:32:43;26.30;40.40
15013;DHT22;7603;49.432;11.418;2024-02-21T12:35:09;26.10;40.40
15013;DHT22;7603;49.432;11.418;2024-02-21T12:37:35;26.00;40.30
15013;DHT22;7603;49.432;11.418;2024-02-21T12:40:00;26.00;40.40
15013;DHT22;7603;49.432;11.418;2024-02-21T12:42:26;25.70;40.20
15013;DHT22;7603;49.432;11.418;2024-02-21T12:44:52;25.70;39.20
15013;DHT22;7603;49.432;11.418;2024-02-21T12:47:18;26.00;38.80
15013;DHT22;7603;49.432;11.418;2024-02-21T12:49:45;26.30;37.90
15013;DHT22;7603;49.432;11.418;2024-02-21T12:52:11;26.30;36.60
15013;DHT22;7603;49.432;11.418;2024-02-21T12:54:37;25.70;36.10
15013;DHT22;7603;49.432;11.418;2024-02-21T12:57:03;24.80;36.90
15013;DHT22;7603;49.432;11.418;2024-02-21T12:59:29;24.50;37.70
15013;DHT22;7603;49.432;11.418;2024-02-21T13:01:55;24.50;37.10
15013;DHT22;7603;49.432;11.418;2024-02-21T13:04:21;24.40;37.20
15013;DHT22;7603;49.432;11.418;2024-02-21T13:06:48;24.40;37.60
15013;DHT22;7603;49.432;11.418;2024-02-21T13:09:14;24.70;37.40
15013;DHT22;7603;49.432;11.418;2024-02-21T13:11:40;25.10;37.30
15013;DHT22;7603;49.432;11.418;2024-02-21T13:14:07;25.50;37.00
15013;DHT22;7603;49.432;11.418;2024-02-21T13:16:32;25.80;36.70
15013;DHT22;7603;49.432;11.418;2024-02-21T13:19:04;25.90;36.00
15013;DHT22;7603;49.432;11.418;2024-02-21T13:21:30;25.80;35.70
15013;DHT22;7603;49.432;11.418;2024-02-21T13:23:56;25.80;35.40
15013;DHT22;7603;49.432;11.418;2024-02-21T13:26:22;25.40;35.20
15013;DHT22;7603;49.432;11.418;2024-02-21T13:28:48;24.80;36.00
15013;DHT22;7603;49.432;11.418;2024-02-21T13:31:14;24.60;36.50
15013;DHT22;7603;49.432;11.418;2024-02-21T13:33:42;24.40;36.90
15013;DHT22;7603;49.432;11.418;2024-02-21T13:36:07;24.30;37.00
15013;DHT22;7603;49.432;11.418;2024-02-21T13:38:33;23.90;37.00
15013;DHT22;7603;49.432;11.418;2024-02-21T13:40:59;23.40;37.20
15013;DHT22;7603;49.432;11.418;2024-02-21T13:43:25;22.80;37.80
15013;DHT22;7603;49.432;11.418;2024-02-21T13:45:59;22.60;38.40
15013;DHT22;7603;49.432;11.418;2024-02-21T13:48:25;22.60;38.50
15013;DHT22;7603;49.432;11.418;2024-02-21T13:50:50;22.60;39.00
15013;DHT22;7603;49.432;11.418;2024-02-21T13:53:16;22.80;38.50
15013;DHT22;7603;49.432;11.418;2024-02-21T13:55:44;22.70;36.80
15013;DHT22;7603;49.432;11.418;2024-02-21T13:58:10;22.30;36.80
15013;DHT22;7603;49.432;11.418;2024-02-21T14:00:36;21.70;37.70
15013;DHT22;7603;49.432;11.418;2024-02-21T14:03:02;21.00;39.30
15013;DHT22;7603;49.432;11.418;2024-02-21T14:05:27;20.40;40.00
15013;DHT22;7603;49.432;11.418;2024-02-21T14:07:53;19.80;40.90
15013;DHT22;7603;49.432;11.418;2024-02-21T14:10:20;19.30;41.60
15013;DHT22;7603;49.432;11.418;2024-02-21T14:12:46;18.90;42.00
15013;DHT22;7603;49.432;11.418;2024-02-21T14:15:13;18.60;42.90
15013;DHT22;7603;49.432;11.418;2024-02-21T14:17:39;18.40;43.60
15013;DHT22;7603;49.432;11.418;2024-02-21T14:20:08;18.30;44.30
15013;DHT22;7603;49.432;11.418;2024-02-21T14:22:34;18.20;44.60
15013;DHT22;7603;49.432;11.418;2024-02-21T14:25:03;18.40;45.10
15013;DHT22;7603;49.432;11.418;2024-02-21T14:27:30;18.50;44.50
15013;DHT22;7603;49.432;11.418;2024-02-21T14:29:56;18.60;44.50
15013;DHT22;7603;49.432;11.418;2024-02-21T14:32:22;18.70;44.80
15013;DHT22;7603;49.432;11.418;2024-02-21T14:34:47;18.80;45.00
15013;DHT22;7603;49.432;11.418;2024-02-21T14:37:14;18.60;44.10
15013;DHT22;7603;49.432;11.418;2024-02-21T14:39:41;18.40;44.20
15013;DHT22;7603;49.432;11.418;2024-02-21T14:42:07;18.10;45.00
15013;DHT22;7603;49.432;11.418;2024-02-21T14:44:35;18.10;45.80
15013;DHT22;7603;49.432;11.418;2024-02-21T14:47:02;18.20;45.60
15013;DHT22;7603;49.432;11.418;2024-02-21T14:49:29;18.30;45.40
15013;DHT22;7603;49.432;11.418;2024-02-21T14:51:54;18.20;45.10
15013;DHT22;7603;49.432;11.418;2024-02-21T14:54:20;18.00;45.10
15013;DHT22;7603;49.432;11.418;2024-02-21T14:56:46;17.60;45.50
15013;DHT22;7603;49.432;11.418;2024-02-21T14:59:14;17.30;46.30
15013;DHT22;7603;49.432;11.418;2024-02-21T15:01:42;17.10;46.70
15013;DHT22;7603;49.432;11.418;2024-02-21T15:04:07;16.90;47.40
15013;DHT22;7603;49.432;11.418;2024-02-21T15:06:33;16.70;47.60
15013;DHT22;7603;49.432;11.418;2024-02-21T15:09:01;16.50;48.20
15013;DHT22;7603;49.432;11.418;2024-02-21T15:11:28;16.30;48.90
15013;DHT22;7603;49.432;11.418;2024-02-21T15:13:53;16.00;48.90
15013;DHT22;7603;49.432;11.418;2024-02-21T15:16:19;15.80;49.70
15013;DHT22;7603;49.432;11.418;2024-02-21T15:18:45;15.50;50.30
15013;DHT22;7603;49.432;11.418;2024-02-21T15:21:10;15.40;50.80
15013;DHT22;7603;49.432;11.418;2024-02-21T15:23:39;15.30;51.30
15013;DHT22;7603;49.432;11.418;2024-02-21T15:26:06;15.10;51.70
15013;DHT22;7603;49.432;11.418;2024-02-21T15:28:31;14.90;52.10
15013;DHT22;7603;49.432;11.418;2024-02-21T15:30:57;14.60;52.80
15013;DHT22;7603;49.432;11.418;2024-02-21T15:33:23;14.50;53.40
15013;DHT22;7603;49.432;11.418;2024-02-21T15:35:49;14.20;54.20
15013;DHT22;7603;49.432;11.418;2024-02-21T15:38:14;14.00;54.80
15013;DHT22;7603;49.432;11.418;2024-02-21T15:40:40;13.80;55.40